createdAt,value
2018-12-17T00:01:02.278Z,2.30
2018-12-17T00:03:29.641Z,2.30
2018-12-17T00:05:57.007Z,2.20
2018-12-17T00:08:24.222Z,2.20
2018-12-17T00:10:51.332Z,2.20
2018-12-17T00:15:52.517Z,2.20
2018-12-17T00:18:19.666Z,2.20
2018-12-17T00:20:46.805Z,2.20
2018-12-17T00:23:13.925Z,2.20
2018-12-17T00:25:41.129Z,2.20
2018-12-17T00:28:08.414Z,2.20
2018-12-17T00:30:35.737Z,2.30
2018-12-17T00:33:03.013Z,2.20
2018-12-17T00:35:30.140Z,2.20
2018-12-17T00:37:57.265Z,2.20
2018-12-17T00:40:24.624Z,2.20
2018-12-17T00:42:51.873Z,2.30
2018-12-17T00:45:19.001Z,2.30
2018-12-17T00:47:46.242Z,2.30
2018-12-17T00:50:13.378Z,2.40
2018-12-17T00:52:40.512Z,2.40
2018-12-17T00:55:07.789Z,2.40
2018-12-17T00:57:34.929Z,2.40
2018-12-17T01:00:02.729Z,2.40
2018-12-17T01:02:29.976Z,2.50
2018-12-17T01:04:57.089Z,2.50
2018-12-17T01:07:31.004Z,2.50
2018-12-17T01:09:58.584Z,2.50
2018-12-17T01:12:25.837Z,2.50
2018-12-17T01:14:53.288Z,2.50
2018-12-17T01:17:20.647Z,2.70
2018-12-17T01:19:47.953Z,2.70
2018-12-17T01:22:15.077Z,2.70
2018-12-17T01:24:42.205Z,2.60
2018-12-17T01:27:09.346Z,2.50
2018-12-17T01:29:36.553Z,2.60
2018-12-17T01:32:03.963Z,2.60
2018-12-17T01:34:31.099Z,2.60
2018-12-17T01:36:58.228Z,2.60
2018-12-17T01:39:25.506Z,2.70
2018-12-17T01:41:52.626Z,2.70
2018-12-17T01:44:19.797Z,2.70
2018-12-17T01:46:46.925Z,2.70
2018-12-17T01:49:14.062Z,2.60
2018-12-17T01:51:41.181Z,2.50
2018-12-17T01:54:08.449Z,2.40
2018-12-17T01:56:35.556Z,2.30
2018-12-17T01:59:02.910Z,2.20
2018-12-17T02:01:30.150Z,2.20
2018-12-17T02:03:57.285Z,2.20
2018-12-17T02:06:24.399Z,2.20
2018-12-17T02:08:51.565Z,2.20
2018-12-17T02:11:18.693Z,2.20
2018-12-17T02:13:46.321Z,2.20
2018-12-17T02:16:13.449Z,2.30
2018-12-17T02:18:40.666Z,2.30
2018-12-17T02:21:08.017Z,2.40
2018-12-17T02:23:35.137Z,2.40
2018-12-17T02:26:02.739Z,2.40
2018-12-17T02:28:35.970Z,2.40
2018-12-17T02:30:59.042Z,2.50
2018-12-17T02:33:26.148Z,2.50
2018-12-17T02:35:53.274Z,2.50
2018-12-17T02:38:20.398Z,2.50
2018-12-17T02:40:47.651Z,2.50
2018-12-17T02:43:14.836Z,2.60
2018-12-17T02:45:42.106Z,2.60
2018-12-17T02:48:09.241Z,2.50
2018-12-17T02:50:36.398Z,2.60
2018-12-17T02:53:03.529Z,2.60
2018-12-17T02:55:30.805Z,2.70
2018-12-17T02:57:58.028Z,2.80
2018-12-17T03:00:25.166Z,2.90
2018-12-17T03:02:52.283Z,2.90
2018-12-17T03:05:19.410Z,2.80
2018-12-17T03:07:46.707Z,2.80
2018-12-17T03:10:13.904Z,2.80
2018-12-17T03:12:41.163Z,2.90
2018-12-17T03:15:08.431Z,2.90
2018-12-17T03:17:35.689Z,2.90
2018-12-17T03:20:03.161Z,2.90
2018-12-17T03:22:30.505Z,2.90
2018-12-17T03:24:57.736Z,2.80
2018-12-17T03:27:24.981Z,2.80
2018-12-17T03:29:52.133Z,2.90
2018-12-17T03:32:19.390Z,2.80
2018-12-17T03:34:46.842Z,2.90
2018-12-17T03:37:13.975Z,2.90
2018-12-17T03:39:41.219Z,2.90
2018-12-17T03:42:08.685Z,2.80
2018-12-17T03:44:35.930Z,2.80
2018-12-17T03:47:03.393Z,2.70
2018-12-17T03:49:30.511Z,2.60
2018-12-17T03:51:57.741Z,2.60
2018-12-17T03:54:24.868Z,2.60
2018-12-17T03:56:52.131Z,2.60
2018-12-17T03:59:19.255Z,2.60
2018-12-17T04:01:46.394Z,2.60
2018-12-17T04:04:13.630Z,2.60
2018-12-17T04:06:40.769Z,2.60
2018-12-17T04:09:07.997Z,2.70
2018-12-17T04:11:35.346Z,2.70
2018-12-17T04:14:02.573Z,2.60
2018-12-17T04:16:29.733Z,2.60
2018-12-17T04:18:56.853Z,2.50
2018-12-17T04:21:24.130Z,2.50
2018-12-17T04:23:51.370Z,2.60
2018-12-17T04:26:18.536Z,2.60
2018-12-17T04:28:45.777Z,2.60
2018-12-17T04:31:13.036Z,2.60
2018-12-17T04:33:40.170Z,2.60
2018-12-17T04:36:07.413Z,2.60
2018-12-17T04:38:34.538Z,2.50
2018-12-17T04:41:01.785Z,2.40
2018-12-17T04:43:28.923Z,2.40
2018-12-17T04:45:56.068Z,2.40
2018-12-17T04:48:23.209Z,2.30
2018-12-17T04:50:50.555Z,2.30
2018-12-17T04:53:17.667Z,2.30
2018-12-17T04:55:44.893Z,2.40
2018-12-17T04:58:12.165Z,2.50
2018-12-17T05:00:39.393Z,2.50
2018-12-17T05:03:06.648Z,2.50
2018-12-17T05:05:34.869Z,2.60
2018-12-17T05:08:01.996Z,2.60
2018-12-17T05:10:29.128Z,2.70
2018-12-17T05:12:56.386Z,2.70
2018-12-17T05:15:23.509Z,2.80
2018-12-17T05:17:50.629Z,2.80
2018-12-17T05:20:24.841Z,2.80
2018-12-17T05:22:52.017Z,2.80
2018-12-17T05:25:19.144Z,2.90
2018-12-17T05:27:46.258Z,2.80
2018-12-17T05:30:13.834Z,2.90
2018-12-17T05:32:40.974Z,2.80
2018-12-17T05:35:08.399Z,2.80
2018-12-17T05:37:35.537Z,2.70
2018-12-17T05:40:03.238Z,2.60
2018-12-17T05:42:30.361Z,2.60
2018-12-17T05:44:57.629Z,2.60
2018-12-17T05:47:24.845Z,2.60
2018-12-17T05:49:51.982Z,2.60
2018-12-17T05:52:19.121Z,2.60
2018-12-17T05:54:46.290Z,2.50
2018-12-17T05:57:13.399Z,2.60
2018-12-17T05:59:40.670Z,2.50
2018-12-17T06:02:07.786Z,2.60
2018-12-17T06:04:34.896Z,2.50
2018-12-17T06:07:02.014Z,2.50
2018-12-17T06:09:29.258Z,2.50
2018-12-17T06:11:56.394Z,2.50
2018-12-17T06:14:23.525Z,2.50
2018-12-17T06:16:50.657Z,2.50
2018-12-17T06:19:17.793Z,2.50
2018-12-17T06:21:44.934Z,2.50
2018-12-17T06:24:12.069Z,2.50
2018-12-17T06:26:39.238Z,2.60
2018-12-17T06:29:06.356Z,2.60
2018-12-17T06:31:33.609Z,2.60
2018-12-17T06:34:00.742Z,2.60
2018-12-17T06:36:27.849Z,2.50
2018-12-17T06:38:55.089Z,2.50
2018-12-17T06:41:22.322Z,2.50
2018-12-17T06:43:49.459Z,2.50
2018-12-17T06:46:16.723Z,2.50
2018-12-17T06:48:43.845Z,2.50
2018-12-17T06:51:11.013Z,2.50
2018-12-17T06:53:38.134Z,2.40
2018-12-17T06:56:05.806Z,2.40
2018-12-17T06:58:33.776Z,2.40
2018-12-17T07:01:02.632Z,2.50
2018-12-17T07:03:30.537Z,2.50
2018-12-17T07:05:57.970Z,2.50
2018-12-17T07:08:25.491Z,2.50
2018-12-17T07:10:53.697Z,2.50
2018-12-17T07:13:21.507Z,2.50
2018-12-17T07:15:49.377Z,2.50
2018-12-17T07:18:17.091Z,2.50
2018-12-17T07:20:44.918Z,2.50
2018-12-17T07:23:13.055Z,2.50
2018-12-17T07:25:40.339Z,2.50
2018-12-17T07:28:07.531Z,2.50
2018-12-17T07:30:35.171Z,2.50
2018-12-17T07:33:03.057Z,2.40
2018-12-17T07:35:31.183Z,2.50
2018-12-17T07:37:59.393Z,2.50
2018-12-17T07:40:27.570Z,2.50
2018-12-17T07:42:56.223Z,2.60
2018-12-17T07:45:24.282Z,2.60
2018-12-17T07:47:51.944Z,2.60
2018-12-17T07:50:19.134Z,2.60
2018-12-17T07:52:46.390Z,2.70
2018-12-17T07:55:13.525Z,2.70
2018-12-17T07:57:40.674Z,2.70
2018-12-17T08:00:08.033Z,2.70
2018-12-17T08:02:35.429Z,2.70
2018-12-17T08:05:03.515Z,2.70
2018-12-17T08:07:30.801Z,2.70
2018-12-17T08:09:57.914Z,2.70
2018-12-17T08:12:25.172Z,2.70
2018-12-17T08:14:52.405Z,2.70
2018-12-17T08:17:19.602Z,2.70
2018-12-17T08:19:46.926Z,2.70
2018-12-17T08:22:14.061Z,2.70
2018-12-17T08:24:41.213Z,2.80
2018-12-17T08:27:08.474Z,2.80
2018-12-17T08:29:35.693Z,2.90
2018-12-17T08:32:02.942Z,2.90
2018-12-17T08:34:30.155Z,2.90
2018-12-17T08:36:57.393Z,2.90
2018-12-17T08:39:24.503Z,2.90
2018-12-17T08:41:51.725Z,2.80
2018-12-17T08:44:19.098Z,2.90
2018-12-17T08:46:46.262Z,2.90
2018-12-17T08:49:13.493Z,2.90
2018-12-17T08:51:40.728Z,3.00
2018-12-17T08:54:07.971Z,2.90
2018-12-17T08:56:35.089Z,3.00
2018-12-17T08:59:02.461Z,3.00
2018-12-17T09:01:29.692Z,3.00
2018-12-17T09:03:56.934Z,3.00
2018-12-17T09:06:24.226Z,3.00
2018-12-17T09:08:51.440Z,3.00
2018-12-17T09:11:18.804Z,3.00
2018-12-17T09:13:46.177Z,3.00
2018-12-17T09:16:13.441Z,3.00
2018-12-17T09:18:40.567Z,3.00
2018-12-17T09:21:07.807Z,3.00
2018-12-17T09:23:35.158Z,3.00
2018-12-17T09:26:02.514Z,2.90
2018-12-17T09:28:29.653Z,2.90
2018-12-17T09:30:56.877Z,3.00
2018-12-17T09:33:24.117Z,3.00
2018-12-17T09:35:51.385Z,3.00
2018-12-17T09:38:18.519Z,3.00
2018-12-17T09:40:45.634Z,2.90
2018-12-17T09:43:12.894Z,2.90
2018-12-17T09:45:40.134Z,2.90
2018-12-17T09:48:07.269Z,2.90
2018-12-17T09:50:34.393Z,2.90
2018-12-17T09:53:01.523Z,2.90
2018-12-17T09:55:28.765Z,2.90
2018-12-17T09:57:55.873Z,3.00
2018-12-17T10:00:25.534Z,3.00
2018-12-17T10:02:52.156Z,3.00
2018-12-17T10:05:19.292Z,2.90
2018-12-17T10:07:46.426Z,2.90
2018-12-17T10:10:13.575Z,3.00
2018-12-17T10:12:40.686Z,3.00
2018-12-17T10:15:07.934Z,3.00
2018-12-17T10:17:35.072Z,3.00
2018-12-17T10:20:02.953Z,3.00
2018-12-17T10:22:30.074Z,3.10
2018-12-17T10:24:57.193Z,3.10
2018-12-17T10:27:24.314Z,3.10
2018-12-17T10:29:51.459Z,3.20
2018-12-17T10:32:18.591Z,3.20
2018-12-17T10:34:45.818Z,3.20
2018-12-17T10:37:12.939Z,3.20
2018-12-17T10:39:40.289Z,3.30
2018-12-17T10:42:07.579Z,3.30
2018-12-17T10:44:34.742Z,3.40
2018-12-17T10:47:01.873Z,3.40
2018-12-17T10:49:29.150Z,3.40
2018-12-17T10:52:03.658Z,3.30
2018-12-17T10:54:30.788Z,3.40
2018-12-17T10:56:57.896Z,3.30
2018-12-17T10:59:25.005Z,3.30
2018-12-17T11:02:23.319Z,3.30
2018-12-17T11:05:22.909Z,3.30
2018-12-17T11:07:50.166Z,3.40
2018-12-17T11:10:17.297Z,3.40
2018-12-17T11:12:44.545Z,3.40
2018-12-17T11:15:12.021Z,3.40
2018-12-17T11:17:39.168Z,3.40
2018-12-17T11:20:08.161Z,3.50
2018-12-17T11:22:35.293Z,3.50
2018-12-17T11:25:03.422Z,3.50
2018-12-17T11:27:30.601Z,3.60
2018-12-17T11:29:57.829Z,3.60
2018-12-17T11:32:24.979Z,3.60
2018-12-17T11:34:52.095Z,3.60
2018-12-17T11:37:19.209Z,3.70
2018-12-17T11:39:46.564Z,3.70
2018-12-17T11:42:13.688Z,3.70
2018-12-17T11:44:40.789Z,3.70
2018-12-17T11:47:07.923Z,3.80
2018-12-17T11:49:35.117Z,3.80
2018-12-17T11:52:02.479Z,3.90
2018-12-17T11:54:29.711Z,3.90
2018-12-17T11:59:10.110Z,3.90
2018-12-17T12:01:37.250Z,3.90
2018-12-17T12:04:04.481Z,4.00
2018-12-17T12:06:31.694Z,4.00
2018-12-17T12:08:58.807Z,4.00
2018-12-17T12:11:25.968Z,4.00
2018-12-17T12:13:53.105Z,4.00
2018-12-17T12:16:20.265Z,4.00
2018-12-17T12:18:47.385Z,4.10
2018-12-17T12:21:14.499Z,4.20
2018-12-17T12:23:41.680Z,4.30
2018-12-17T12:26:08.798Z,4.30
2018-12-17T12:28:35.925Z,4.30
2018-12-17T12:31:03.158Z,4.30
2018-12-17T12:33:31.365Z,4.30
2018-12-17T12:35:58.474Z,4.40
2018-12-17T12:38:25.590Z,4.40
2018-12-17T12:40:52.748Z,4.60
2018-12-17T12:43:19.969Z,4.70
2018-12-17T12:45:47.209Z,4.70
2018-12-17T12:48:14.353Z,4.80
2018-12-17T12:50:41.476Z,4.80
2018-12-17T12:53:08.706Z,4.90
2018-12-17T12:55:35.809Z,5.00
2018-12-17T12:58:03.798Z,5.10
2018-12-17T13:00:31.314Z,5.20
2018-12-17T13:02:58.550Z,5.20
2018-12-17T13:05:25.981Z,5.30
2018-12-17T13:07:53.214Z,5.40
2018-12-17T13:10:20.445Z,5.40
2018-12-17T13:12:47.562Z,5.40
2018-12-17T13:15:14.758Z,5.30
2018-12-17T13:17:41.912Z,5.20
2018-12-17T13:20:09.423Z,5.20
2018-12-17T13:22:36.857Z,5.10
2018-12-17T13:25:05.777Z,5.10
2018-12-17T13:27:32.974Z,5.10
2018-12-17T13:30:00.089Z,5.20
2018-12-17T13:32:27.234Z,5.20
2018-12-17T13:34:54.345Z,5.10
2018-12-17T13:37:21.480Z,5.10
2018-12-17T13:39:48.669Z,5.10
2018-12-17T13:42:15.773Z,5.20
2018-12-17T13:44:42.902Z,5.20
2018-12-17T13:47:10.078Z,5.30
2018-12-17T13:49:37.205Z,5.40
2018-12-17T13:52:10.233Z,5.40
2018-12-17T13:54:37.373Z,5.40
2018-12-17T13:57:04.501Z,5.40
2018-12-17T13:59:31.634Z,5.40
2018-12-17T14:01:58.766Z,5.30
2018-12-17T14:04:26.039Z,5.20
2018-12-17T14:06:53.153Z,5.20
2018-12-17T14:09:20.419Z,5.20
2018-12-17T14:11:47.526Z,5.20
2018-12-17T14:14:14.703Z,5.20
2018-12-17T14:16:47.594Z,5.20
2018-12-17T14:19:21.362Z,5.20
2018-12-17T14:21:54.169Z,5.20
2018-12-17T14:24:21.309Z,5.20
2018-12-17T14:26:49.226Z,5.20
2018-12-17T14:29:16.340Z,5.20
2018-12-17T14:31:43.564Z,5.20
2018-12-17T14:34:10.680Z,5.20
2018-12-17T14:36:37.929Z,5.20
2018-12-17T14:39:06.747Z,5.10
2018-12-17T14:41:34.283Z,5.10
2018-12-17T14:44:38.849Z,5.20
2018-12-17T14:47:06.122Z,5.20
2018-12-17T14:49:33.248Z,5.20
2018-12-17T14:52:00.477Z,5.10
2018-12-17T14:54:27.649Z,5.20
2018-12-17T14:56:54.765Z,5.20
2018-12-17T14:59:21.989Z,5.30
2018-12-17T15:01:49.177Z,5.30
2018-12-17T15:04:16.384Z,5.30
2018-12-17T15:06:43.545Z,5.30
2018-12-17T15:09:10.687Z,5.20
2018-12-17T15:11:38.173Z,5.20
2018-12-17T15:14:05.418Z,5.20
2018-12-17T15:16:32.782Z,5.20
2018-12-17T15:18:59.905Z,5.20
2018-12-17T15:21:27.159Z,5.20
2018-12-17T15:23:54.268Z,5.20
2018-12-17T15:26:21.542Z,5.20
2018-12-17T15:28:48.760Z,5.10
2018-12-17T15:31:16.002Z,5.20
2018-12-17T15:33:43.405Z,5.10
2018-12-17T15:36:10.517Z,5.10
2018-12-17T15:38:37.837Z,5.10
2018-12-17T15:41:05.038Z,5.20
2018-12-17T15:43:32.277Z,5.20
2018-12-17T15:45:59.416Z,5.20
2018-12-17T15:48:26.538Z,5.10
2018-12-17T15:50:53.782Z,5.00
2018-12-17T15:53:20.898Z,5.00
2018-12-17T15:55:48.030Z,5.10
2018-12-17T15:58:15.135Z,5.10
2018-12-17T16:00:42.249Z,5.10
2018-12-17T16:03:09.377Z,5.10
2018-12-17T16:05:36.550Z,5.20
2018-12-17T16:08:03.782Z,5.20
2018-12-17T16:10:30.891Z,5.20
2018-12-17T16:12:58.018Z,5.20
2018-12-17T16:15:25.229Z,5.20
2018-12-17T16:20:26.258Z,5.10
2018-12-17T16:22:53.405Z,5.10
2018-12-17T16:25:20.741Z,5.10
2018-12-17T16:27:48.187Z,5.10
2018-12-17T16:30:22.118Z,5.10
2018-12-17T16:32:49.258Z,5.00
2018-12-17T16:35:16.505Z,5.10
2018-12-17T16:37:43.800Z,5.10
2018-12-17T16:40:11.156Z,5.10
2018-12-17T16:42:38.382Z,5.10
2018-12-17T16:45:07.647Z,5.10
2018-12-17T16:47:34.895Z,5.10
2018-12-17T16:50:02.286Z,5.00
2018-12-17T16:52:29.413Z,5.00
2018-12-17T16:54:56.681Z,5.00
2018-12-17T16:57:23.817Z,5.00
2018-12-17T16:59:50.933Z,5.00
2018-12-17T17:02:18.069Z,5.00
2018-12-17T17:04:45.202Z,5.00
2018-12-17T17:07:12.440Z,5.00
2018-12-17T17:09:39.669Z,5.00
2018-12-17T17:12:06.837Z,4.90
2018-12-17T17:14:33.978Z,4.90
2018-12-17T17:17:01.259Z,4.90
2018-12-17T17:19:28.497Z,4.80
2018-12-17T17:21:55.637Z,4.80
2018-12-17T17:24:23.789Z,4.80
2018-12-17T17:26:50.922Z,4.70
2018-12-17T17:29:18.042Z,4.70
2018-12-17T17:31:45.173Z,4.70
2018-12-17T17:34:12.311Z,4.70
2018-12-17T17:36:39.565Z,4.70
2018-12-17T17:39:07.580Z,4.70
2018-12-17T17:41:35.616Z,4.80
2018-12-17T17:44:02.866Z,4.80
2018-12-17T17:46:29.977Z,4.70
2018-12-17T17:48:57.126Z,4.60
2018-12-17T17:51:24.415Z,4.60
2018-12-17T17:53:51.545Z,4.60
2018-12-17T17:56:18.662Z,4.50
2018-12-17T17:58:45.981Z,4.40
2018-12-17T18:01:13.129Z,4.40
2018-12-17T18:03:40.266Z,4.30
2018-12-17T18:06:07.393Z,4.20
2018-12-17T18:08:34.522Z,4.10
2018-12-17T18:11:01.654Z,4.00
2018-12-17T18:13:28.813Z,4.00
2018-12-17T18:15:55.997Z,4.00
2018-12-17T18:18:23.229Z,4.00
2018-12-17T18:20:50.391Z,4.00
2018-12-17T18:23:17.505Z,4.00
2018-12-17T18:25:44.693Z,4.00
2018-12-17T18:28:11.826Z,4.20
2018-12-17T18:30:39.001Z,4.20
2018-12-17T18:33:07.127Z,4.20
2018-12-17T18:35:34.325Z,4.10
2018-12-17T18:38:01.565Z,3.90
2018-12-17T18:40:28.696Z,3.80
2018-12-17T18:42:55.817Z,3.80
2018-12-17T18:45:23.033Z,3.70
2018-12-17T18:47:50.155Z,3.60
2018-12-17T18:50:17.417Z,3.70
2018-12-17T18:52:44.553Z,3.90
2018-12-17T18:55:11.804Z,3.90
2018-12-17T19:01:10.448Z,3.90
2018-12-17T19:03:37.689Z,3.80
2018-12-17T19:06:04.941Z,3.80
2018-12-17T19:08:32.168Z,3.90
2018-12-17T19:10:59.332Z,3.80
2018-12-17T19:13:26.447Z,3.70
2018-12-17T19:15:53.819Z,3.60
2018-12-17T19:18:21.511Z,3.70
2018-12-17T19:20:49.245Z,3.70
2018-12-17T19:23:16.650Z,3.80
2018-12-17T19:25:45.468Z,3.80
2018-12-17T19:28:13.222Z,3.80
2018-12-17T19:30:43.434Z,3.80
2018-12-17T19:33:11.470Z,3.70
2018-12-17T19:35:39.213Z,3.60
2018-12-17T19:38:06.730Z,3.60
2018-12-17T19:40:34.311Z,3.50
2018-12-17T19:43:01.654Z,3.40
2018-12-17T19:45:29.223Z,3.50
2018-12-17T19:47:56.718Z,3.50
2018-12-17T19:50:24.110Z,3.50
2018-12-17T19:52:51.565Z,3.50
2018-12-17T19:55:19.062Z,3.50
2018-12-17T19:57:46.644Z,3.40
2018-12-17T20:00:13.944Z,3.40
2018-12-17T20:02:46.845Z,3.40
2018-12-17T20:05:10.498Z,3.30
2018-12-17T20:07:37.661Z,3.20
2018-12-17T20:10:07.285Z,3.20
2018-12-17T20:12:34.641Z,3.20
2018-12-17T20:15:01.814Z,3.50
2018-12-17T20:17:28.993Z,3.60
2018-12-17T20:19:56.113Z,3.80
2018-12-17T20:22:23.246Z,3.80
2018-12-17T20:24:50.369Z,3.90
2018-12-17T20:27:17.497Z,3.90
2018-12-17T20:29:50.266Z,4.00
2018-12-17T20:32:13.869Z,4.00
2018-12-17T20:34:41.222Z,3.80
2018-12-17T20:37:08.478Z,3.70
2018-12-17T20:39:35.955Z,3.70
2018-12-17T20:42:03.202Z,3.80
2018-12-17T20:44:30.362Z,3.70
2018-12-17T20:46:57.481Z,3.70
2018-12-17T20:49:24.615Z,3.60
2018-12-17T20:51:51.751Z,3.60
2018-12-17T20:54:18.898Z,3.60
2018-12-17T20:56:46.032Z,3.70
2018-12-17T20:59:13.298Z,3.70
2018-12-17T21:01:40.541Z,3.70
2018-12-17T21:04:07.669Z,3.70
2018-12-17T21:06:34.814Z,3.70
2018-12-17T21:09:02.145Z,3.70
2018-12-17T21:11:29.491Z,3.80
2018-12-17T21:13:56.637Z,3.70
2018-12-17T21:16:24.846Z,3.80
2018-12-17T21:18:52.298Z,3.70
2018-12-17T21:21:19.655Z,3.70
2018-12-17T21:23:47.218Z,3.70
2018-12-17T21:26:14.585Z,3.70
2018-12-17T21:28:41.769Z,3.70
2018-12-17T21:31:09.362Z,3.70
2018-12-17T21:33:36.521Z,3.80
2018-12-17T21:36:03.688Z,3.80
2018-12-17T21:38:30.945Z,3.80
2018-12-17T21:40:58.210Z,3.80
2018-12-17T21:43:25.443Z,3.80
2018-12-17T21:45:53.047Z,3.80
2018-12-17T21:48:20.443Z,3.80
2018-12-17T21:50:47.882Z,3.70
2018-12-17T21:53:15.213Z,3.70
2018-12-17T21:55:42.465Z,3.70
2018-12-17T21:58:09.680Z,3.70
2018-12-17T22:00:37.045Z,3.70
2018-12-17T22:03:04.476Z,3.60
2018-12-17T22:05:31.685Z,3.60
2018-12-17T22:07:59.050Z,3.50
2018-12-17T22:10:31.205Z,3.60
2018-12-17T22:12:58.337Z,3.70
2018-12-17T22:15:25.478Z,3.70
2018-12-17T22:17:52.682Z,3.80
2018-12-17T22:20:19.932Z,3.80
2018-12-17T22:22:47.703Z,3.80
2018-12-17T22:25:14.967Z,3.90
2018-12-17T22:27:42.450Z,3.70
2018-12-17T22:30:10.005Z,3.60
2018-12-17T22:32:37.348Z,3.70
2018-12-17T22:35:06.661Z,3.70
2018-12-17T22:37:33.784Z,3.70
2018-12-17T22:40:00.893Z,3.80
2018-12-17T22:42:28.070Z,3.80
2018-12-17T22:44:55.182Z,3.80
2018-12-17T22:47:22.321Z,3.80
2018-12-17T22:49:49.497Z,3.90
2018-12-17T22:52:16.738Z,3.90
2018-12-17T22:54:43.877Z,3.90
2018-12-17T22:57:11.125Z,3.90
2018-12-17T22:59:38.317Z,3.80
2018-12-17T23:02:05.580Z,3.70
2018-12-17T23:04:32.719Z,3.70
2018-12-17T23:06:59.949Z,3.60
2018-12-17T23:09:26.184Z,3.60
2018-12-17T23:12:08.126Z,3.60
2018-12-17T23:14:46.957Z,3.60
2018-12-17T23:17:25.698Z,3.80
2018-12-17T23:19:53.057Z,3.90
2018-12-17T23:22:20.329Z,3.90
2018-12-17T23:24:47.765Z,4.00
2018-12-17T23:27:15.009Z,4.00
2018-12-17T23:29:42.241Z,4.00
2018-12-17T23:32:09.365Z,4.00
2018-12-17T23:34:36.870Z,4.00
2018-12-17T23:37:04.269Z,4.00
2018-12-17T23:39:31.521Z,3.90
2018-12-17T23:41:58.673Z,3.90
2018-12-17T23:44:26.049Z,3.70
2018-12-17T23:46:53.186Z,3.70
2018-12-17T23:49:20.445Z,3.70
2018-12-17T23:51:47.802Z,3.70
2018-12-17T23:54:15.357Z,3.80
2018-12-17T23:56:42.593Z,3.90
2018-12-17T23:59:10.041Z,3.90
